createdAt,value
2023-01-22T00:00:05.991Z,-2.91
2023-01-22T00:02:39.707Z,-2.84
2023-01-22T00:05:07.260Z,-2.85
2023-01-22T00:07:34.195Z,-3.03
2023-01-22T00:10:00.997Z,-3.08
2023-01-22T00:12:27.987Z,-2.75
2023-01-22T00:14:54.680Z,-2.91
2023-01-22T00:17:21.308Z,-2.73
2023-01-22T00:19:47.995Z,-2.80
2023-01-22T00:22:14.979Z,-2.83
2023-01-22T00:24:41.769Z,-2.92
2023-01-22T00:27:08.421Z,-2.83
2023-01-22T00:29:35.492Z,-2.82
2023-01-22T00:32:02.538Z,-2.91
2023-01-22T00:34:29.699Z,-2.85
2023-01-22T00:36:57.577Z,-2.88
2023-01-22T00:39:24.398Z,-2.93
2023-01-22T00:41:51.868Z,-2.86
2023-01-22T00:44:18.606Z,-2.96
2023-01-22T00:46:45.244Z,-2.84
2023-01-22T00:49:12.538Z,-2.80
2023-01-22T00:51:39.605Z,-2.85
2023-01-22T00:54:06.884Z,-2.82
2023-01-22T00:56:33.776Z,-2.95
2023-01-22T00:59:00.410Z,-3.00
2023-01-22T01:01:27.148Z,-3.08
2023-01-22T01:03:53.905Z,-2.87
2023-01-22T01:06:21.972Z,-3.10
2023-01-22T01:08:49.763Z,-2.83
2023-01-22T01:11:22.402Z,-2.75
2023-01-22T01:13:50.217Z,-2.80
2023-01-22T01:16:20.568Z,-2.90
2023-01-22T01:18:48.338Z,-2.77
2023-01-22T01:21:15.828Z,-2.74
2023-01-22T01:23:42.850Z,-2.85
2023-01-22T01:26:13.489Z,-2.88
2023-01-22T01:28:41.669Z,-2.83
2023-01-22T01:31:11.783Z,-2.74
2023-01-22T01:33:38.700Z,-2.83
2023-01-22T01:36:14.724Z,-2.73
2023-01-22T01:38:41.583Z,-2.79
2023-01-22T01:41:08.506Z,-2.84
2023-01-22T01:43:35.221Z,-2.67
2023-01-22T01:46:03.619Z,-2.72
2023-01-22T01:48:33.235Z,-2.70
2023-01-22T01:51:12.221Z,-2.63
2023-01-22T01:53:40.882Z,-2.71
2023-01-22T01:56:17.235Z,-2.74
2023-01-22T01:58:45.555Z,-2.70
2023-01-22T02:01:16.417Z,-2.66
2023-01-22T02:03:44.406Z,-2.85
2023-01-22T02:06:12.458Z,-2.63
2023-01-22T02:08:41.165Z,-2.89
2023-01-22T02:11:08.416Z,-2.98
2023-01-22T02:13:37.846Z,-2.64
2023-01-22T02:16:05.900Z,-2.92
2023-01-22T02:18:38.492Z,-2.72
2023-01-22T02:21:30.235Z,-2.67
2023-01-22T02:23:57.831Z,-2.69
2023-01-22T02:26:24.489Z,-2.93
2023-01-22T02:28:51.385Z,-2.83
2023-01-22T02:31:18.077Z,-2.88
2023-01-22T02:33:44.718Z,-2.75
2023-01-22T02:36:11.880Z,-2.78
2023-01-22T02:38:38.567Z,-2.74
2023-01-22T02:41:05.320Z,-2.69
2023-01-22T02:43:32.565Z,-2.83
2023-01-22T02:45:59.407Z,-3.04
2023-01-22T02:48:26.259Z,-2.98
2023-01-22T02:50:52.909Z,-2.70
2023-01-22T02:53:19.582Z,-2.82
2023-01-22T02:55:49.048Z,-2.80
2023-01-22T02:58:17.210Z,-2.82
2023-01-22T03:00:44.621Z,-2.97
2023-01-22T03:03:15.572Z,-3.19
2023-01-22T03:05:52.825Z,-2.86
2023-01-22T03:08:19.947Z,-2.92
2023-01-22T03:10:47.054Z,-2.73
2023-01-22T03:13:32.433Z,-2.94
2023-01-22T03:16:17.737Z,-3.47
2023-01-22T03:19:03.214Z,-2.95
2023-01-22T03:21:29.839Z,-2.78
2023-01-22T03:23:56.475Z,-2.79
2023-01-22T03:26:24.320Z,-3.01
2023-01-22T03:28:51.766Z,-2.75
2023-01-22T03:31:18.661Z,-2.75
2023-01-22T03:33:45.920Z,-2.80
2023-01-22T03:36:14.846Z,-2.74
2023-01-22T03:38:46.928Z,-2.74
2023-01-22T03:41:18.465Z,-2.88
2023-01-22T03:43:47.091Z,-2.91
2023-01-22T03:46:19.311Z,-2.65
2023-01-22T03:48:52.551Z,-2.64
2023-01-22T03:51:20.055Z,-2.71
2023-01-22T03:53:47.459Z,-2.69
2023-01-22T03:56:25.182Z,-2.81
2023-01-22T03:58:56.307Z,-2.78
2023-01-22T04:01:25.840Z,-2.73
2023-01-22T04:03:53.496Z,-2.89
2023-01-22T04:06:23.568Z,-2.71
2023-01-22T04:08:51.832Z,-2.69
2023-01-22T04:11:21.609Z,-2.73
2023-01-22T04:13:48.722Z,-2.66
2023-01-22T04:16:18.468Z,-2.94
2023-01-22T04:19:03.836Z,-2.87
2023-01-22T04:21:49.160Z,-2.82
2023-01-22T04:24:16.489Z,-2.81
2023-01-22T04:26:43.134Z,-2.92
2023-01-22T04:29:11.538Z,-3.03
2023-01-22T04:31:38.343Z,-2.84
2023-01-22T04:34:23.587Z,-2.95
2023-01-22T04:37:19.435Z,-2.92
2023-01-22T04:39:46.364Z,-2.92
2023-01-22T04:42:13.057Z,-2.82
2023-01-22T04:44:39.753Z,-2.84
2023-01-22T04:47:08.273Z,-2.91
2023-01-22T04:49:36.568Z,-3.11
2023-01-22T04:52:04.861Z,-3.15
2023-01-22T04:54:31.967Z,-3.15
2023-01-22T04:56:58.606Z,-3.13
2023-01-22T04:59:25.450Z,-2.92
2023-01-22T05:01:52.827Z,-3.20
2023-01-22T05:04:21.781Z,-3.17
2023-01-22T05:06:48.427Z,-3.24
2023-01-22T05:09:15.171Z,-3.12
2023-01-22T05:11:53.157Z,-3.11
2023-01-22T05:14:20.014Z,-3.17
2023-01-22T05:16:49.225Z,-3.25
2023-01-22T05:19:18.081Z,-2.98
2023-01-22T05:21:44.873Z,-3.12
2023-01-22T05:24:15.231Z,-2.87
2023-01-22T05:26:42.426Z,-2.83
2023-01-22T05:29:15.326Z,-3.00
2023-01-22T05:31:44.932Z,-3.08
2023-01-22T05:34:25.855Z,-2.93
2023-01-22T05:36:53.306Z,-3.10
2023-01-22T05:39:23.966Z,-3.10
2023-01-22T05:41:52.286Z,-2.90
2023-01-22T05:44:18.991Z,-3.02
2023-01-22T05:46:50.522Z,-3.01
2023-01-22T05:49:40.424Z,-3.03
2023-01-22T05:52:10.906Z,-2.98
2023-01-22T05:54:39.863Z,-2.82
2023-01-22T05:57:07.886Z,-2.91
2023-01-22T05:59:36.216Z,-2.87
2023-01-22T06:02:05.689Z,-2.97
2023-01-22T06:04:34.981Z,-2.87
2023-01-22T06:07:06.351Z,-3.06
2023-01-22T06:09:33.029Z,-3.21
2023-01-22T06:12:00.316Z,-3.38
2023-01-22T06:14:26.959Z,-3.09
2023-01-22T06:16:56.828Z,-2.99
2023-01-22T06:19:32.449Z,-2.75
2023-01-22T06:21:59.106Z,-3.00
2023-01-22T06:24:33.359Z,-2.96
2023-01-22T06:27:01.555Z,-3.01
2023-01-22T06:29:40.119Z,-2.73
2023-01-22T06:32:07.162Z,-2.78
2023-01-22T06:34:33.900Z,-3.00
2023-01-22T06:37:02.306Z,-2.83
2023-01-22T06:39:31.731Z,-2.98
2023-01-22T06:42:10.990Z,-2.92
2023-01-22T06:44:37.811Z,-2.94
2023-01-22T06:47:04.524Z,-3.00
2023-01-22T06:49:31.322Z,-3.06
2023-01-22T06:51:57.930Z,-2.96
2023-01-22T06:54:24.547Z,-3.05
2023-01-22T06:56:51.196Z,-2.96
2023-01-22T06:59:20.582Z,-2.84
2023-01-22T07:01:47.229Z,-3.06
2023-01-22T07:04:13.862Z,-2.81
2023-01-22T07:06:40.481Z,-2.76
2023-01-22T07:09:07.116Z,-2.65
2023-01-22T07:11:33.741Z,-2.87
2023-01-22T07:14:00.287Z,-2.86
2023-01-22T07:16:26.882Z,-2.91
2023-01-22T07:18:53.472Z,-2.87
2023-01-22T07:21:20.131Z,-2.73
2023-01-22T07:23:46.833Z,-2.77
2023-01-22T07:26:13.449Z,-2.84
2023-01-22T07:28:40.054Z,-2.76
2023-01-22T07:31:10.225Z,-2.55
2023-01-22T07:33:36.930Z,-2.59
2023-01-22T07:36:04.049Z,-2.47
2023-01-22T07:38:30.703Z,-2.61
2023-01-22T07:41:02.301Z,-2.65
2023-01-22T07:43:29.396Z,-2.47
2023-01-22T07:45:57.971Z,-2.56
2023-01-22T07:48:27.110Z,-2.44
2023-01-22T07:50:53.728Z,-2.70
2023-01-22T07:53:20.422Z,-2.50
2023-01-22T07:55:46.989Z,-2.45
2023-01-22T07:58:13.646Z,-2.53
2023-01-22T08:00:40.278Z,-2.35
2023-01-22T08:03:10.487Z,-2.34
2023-01-22T08:05:39.682Z,-2.38
2023-01-22T08:08:10.100Z,-2.33
2023-01-22T08:10:38.223Z,-2.27
2023-01-22T08:13:04.891Z,-2.74
2023-01-22T08:15:32.569Z,-2.39
2023-01-22T08:17:59.222Z,-2.51
2023-01-22T08:20:25.907Z,-2.49
2023-01-22T08:23:00.572Z,-2.11
2023-01-22T08:25:28.338Z,-2.08
2023-01-22T08:27:55.331Z,-1.92
2023-01-22T08:30:22.749Z,-1.77
2023-01-22T08:32:50.399Z,-2.28
2023-01-22T08:35:17.325Z,-2.04
2023-01-22T08:37:44.022Z,-2.17
2023-01-22T08:40:11.903Z,-2.10
2023-01-22T08:42:38.512Z,-2.14
2023-01-22T08:45:05.865Z,-2.06
2023-01-22T08:47:32.491Z,-2.26
2023-01-22T08:49:59.166Z,-2.30
2023-01-22T08:52:25.801Z,-2.23
2023-01-22T08:54:52.466Z,-2.13
2023-01-22T08:57:19.048Z,-2.10
2023-01-22T08:59:59.797Z,-1.94
2023-01-22T09:02:28.182Z,-1.91
2023-01-22T09:04:54.824Z,-2.12
2023-01-22T09:07:21.427Z,-1.92
2023-01-22T09:09:48.213Z,-1.81
2023-01-22T09:12:14.781Z,-1.92
2023-01-22T09:14:41.379Z,-1.78
2023-01-22T09:17:08.774Z,-1.90
2023-01-22T09:19:35.411Z,-1.76
2023-01-22T09:22:06.460Z,-1.69
2023-01-22T09:24:33.383Z,-1.70
2023-01-22T09:27:00.052Z,-1.57
2023-01-22T09:29:26.642Z,-1.58
2023-01-22T09:31:53.816Z,-1.50
2023-01-22T09:34:20.401Z,-1.34
2023-01-22T09:36:47.142Z,-1.45
2023-01-22T09:39:16.206Z,-1.26
2023-01-22T09:41:56.516Z,-1.24
2023-01-22T09:44:37.671Z,-1.72
2023-01-22T09:47:06.421Z,-1.33
2023-01-22T09:49:38.556Z,-1.19
2023-01-22T09:52:06.326Z,-1.12
2023-01-22T09:54:33.902Z,-1.17
2023-01-22T09:57:04.073Z,-1.21
2023-01-22T09:59:43.083Z,-1.02
2023-01-22T10:02:38.330Z,-0.92
2023-01-22T10:05:35.678Z,-0.96
2023-01-22T10:08:32.002Z,-1.11
2023-01-22T10:11:02.968Z,-1.01
2023-01-22T10:13:33.407Z,-1.15
2023-01-22T10:16:00.780Z,-1.29
2023-01-22T10:18:41.594Z,-1.04
2023-01-22T10:21:21.063Z,-1.03
2023-01-22T10:23:50.154Z,-0.83
2023-01-22T10:26:16.728Z,-0.96
2023-01-22T10:28:45.600Z,-0.98
2023-01-22T10:31:31.190Z,-1.15
2023-01-22T10:34:00.829Z,-1.05
2023-01-22T10:36:28.949Z,-1.22
2023-01-22T10:39:16.057Z,-1.20
2023-01-22T10:41:44.401Z,-1.21
2023-01-22T10:44:26.071Z,-1.08
2023-01-22T10:46:54.269Z,-1.44
2023-01-22T10:49:23.984Z,-1.21
2023-01-22T10:51:55.261Z,-1.15
2023-01-22T10:54:36.357Z,-1.26
2023-01-22T10:57:23.337Z,-1.12
2023-01-22T10:59:53.362Z,-0.86
2023-01-22T11:02:24.418Z,-0.93
2023-01-22T11:04:51.931Z,-0.90
2023-01-22T11:07:26.273Z,-1.03
2023-01-22T11:10:16.468Z,-1.16
2023-01-22T11:13:00.644Z,-0.96
2023-01-22T11:15:30.287Z,-1.07
2023-01-22T11:18:01.453Z,-0.97
2023-01-22T11:20:45.934Z,-1.15
2023-01-22T11:23:39.294Z,-1.21
2023-01-22T11:26:41.042Z,-1.04
2023-01-22T11:29:32.218Z,-0.99
2023-01-22T11:32:13.930Z,-1.03
2023-01-22T11:35:21.436Z,-1.11
2023-01-22T11:38:19.256Z,-1.00
2023-01-22T11:40:57.666Z,-1.14
2023-01-22T11:43:43.989Z,-1.11
2023-01-22T11:46:25.953Z,-1.13
2023-01-22T11:49:08.268Z,-1.14
2023-01-22T11:52:07.437Z,-1.21
2023-01-22T11:54:55.366Z,-1.09
2023-01-22T11:57:39.589Z,-1.16
2023-01-22T12:00:34.747Z,-1.04
2023-01-22T12:03:27.138Z,-1.09
2023-01-22T12:06:29.144Z,-1.13
2023-01-22T12:09:19.831Z,-0.98
2023-01-22T12:12:13.868Z,-1.00
2023-01-22T12:14:52.565Z,-0.94
2023-01-22T12:17:38.051Z,-1.14
2023-01-22T12:20:20.732Z,-1.02
2023-01-22T12:23:00.577Z,-1.03
2023-01-22T12:25:33.032Z,-0.91
2023-01-22T12:28:10.293Z,-0.86
2023-01-22T12:30:56.434Z,-0.92
2023-01-22T12:33:28.783Z,-0.90
2023-01-22T12:36:00.447Z,-0.86
2023-01-22T12:38:35.089Z,-0.87
2023-01-22T12:41:53.055Z,-0.77
2023-01-22T12:44:34.337Z,-0.75
2023-01-22T12:47:15.069Z,-0.82
2023-01-22T12:49:50.310Z,-0.54
2023-01-22T12:52:39.313Z,-0.42
2023-01-22T12:55:29.202Z,-0.28
2023-01-22T12:57:56.651Z,-0.36
2023-01-22T13:00:25.792Z,-0.38
2023-01-22T13:02:52.563Z,-0.61
2023-01-22T13:05:42.370Z,-0.46
2023-01-22T13:08:18.046Z,-0.24
2023-01-22T13:11:05.416Z,-0.36
2023-01-22T13:13:36.228Z,-0.43
2023-01-22T13:16:19.610Z,-0.83
2023-01-22T13:18:50.377Z,-0.92
2023-01-22T13:21:23.036Z,-0.88
2023-01-22T13:23:50.318Z,-0.76
2023-01-22T13:26:22.615Z,-0.66
2023-01-22T13:28:56.701Z,-0.67
2023-01-22T13:31:24.389Z,-0.87
2023-01-22T13:33:59.874Z,-0.89
2023-01-22T13:36:27.976Z,-0.87
2023-01-22T13:38:59.364Z,-0.73
2023-01-22T13:41:38.683Z,-0.68
2023-01-22T13:44:07.424Z,-0.90
2023-01-22T13:46:37.785Z,-0.85
2023-01-22T13:49:15.381Z,-0.80
2023-01-22T13:51:42.921Z,-1.00
2023-01-22T13:54:18.099Z,-0.89
2023-01-22T13:56:44.935Z,-0.85
2023-01-22T13:59:34.871Z,-0.86
2023-01-22T14:02:32.342Z,-0.85
2023-01-22T14:04:59.528Z,-0.87
2023-01-22T14:07:32.424Z,-1.14
2023-01-22T14:10:16.827Z,-0.91
2023-01-22T14:12:43.861Z,-0.91
2023-01-22T14:15:19.181Z,-0.94
2023-01-22T14:17:48.009Z,-1.03
2023-01-22T14:20:16.359Z,-1.23
2023-01-22T14:22:43.021Z,-1.01
2023-01-22T14:25:10.142Z,-1.11
2023-01-22T14:27:47.207Z,-0.98
2023-01-22T14:30:17.593Z,-0.85
2023-01-22T14:32:45.559Z,-1.00
2023-01-22T14:35:17.835Z,-0.87
2023-01-22T14:37:45.022Z,-1.11
2023-01-22T14:40:13.933Z,-1.09
2023-01-22T14:42:40.734Z,-0.90
2023-01-22T14:45:08.972Z,-1.05
2023-01-22T14:47:35.848Z,-1.06
2023-01-22T14:50:03.527Z,-1.00
2023-01-22T14:52:30.106Z,-1.22
2023-01-22T14:54:56.988Z,-1.11
2023-01-22T14:57:25.354Z,-1.19
2023-01-22T14:59:52.107Z,-1.05
2023-01-22T15:02:18.864Z,-1.06
2023-01-22T15:04:45.820Z,-1.17
2023-01-22T15:07:12.593Z,-1.03
2023-01-22T15:09:40.188Z,-1.05
2023-01-22T15:12:07.364Z,-1.04
2023-01-22T15:14:34.058Z,-1.16
2023-01-22T15:17:00.688Z,-1.29
2023-01-22T15:19:27.340Z,-1.44
2023-01-22T15:21:54.269Z,-1.15
2023-01-22T15:24:21.311Z,-1.66
2023-01-22T15:26:48.111Z,-1.36
2023-01-22T15:29:14.958Z,-1.22
2023-01-22T15:31:41.888Z,-1.41
2023-01-22T15:34:08.869Z,-1.47
2023-01-22T15:36:37.080Z,-1.30
2023-01-22T15:39:03.715Z,-1.59
2023-01-22T15:41:32.290Z,-1.54
2023-01-22T15:44:01.326Z,-1.67
2023-01-22T15:46:30.452Z,-1.46
2023-01-22T15:48:58.627Z,-1.53
2023-01-22T15:51:26.263Z,-1.41
2023-01-22T15:53:55.128Z,-1.45
2023-01-22T15:56:24.003Z,-1.64
2023-01-22T15:58:51.124Z,-1.64
2023-01-22T16:01:19.694Z,-1.54
2023-01-22T16:03:46.604Z,-1.65
2023-01-22T16:06:16.305Z,-1.53
2023-01-22T16:08:44.737Z,-1.61
2023-01-22T16:11:11.895Z,-1.62
2023-01-22T16:13:38.599Z,-1.74
2023-01-22T16:16:19.719Z,-1.64
2023-01-22T16:18:47.652Z,-1.70
2023-01-22T16:21:15.973Z,-1.75
2023-01-22T16:23:43.939Z,-1.70
2023-01-22T16:26:14.736Z,-1.74
2023-01-22T16:28:42.822Z,-1.90
2023-01-22T16:31:12.934Z,-1.73
2023-01-22T16:33:43.834Z,-1.77
2023-01-22T16:36:14.165Z,-1.94
2023-01-22T16:38:41.887Z,-1.75
2023-01-22T16:41:24.975Z,-1.68
2023-01-22T16:43:53.598Z,-1.79
2023-01-22T16:46:23.267Z,-1.79
2023-01-22T16:48:56.132Z,-1.91
2023-01-22T16:51:25.316Z,-1.78
2023-01-22T16:53:52.632Z,-1.83
2023-01-22T16:56:19.621Z,-2.10
2023-01-22T16:58:46.256Z,-2.07
2023-01-22T17:01:14.166Z,-1.88
2023-01-22T17:03:41.829Z,-1.83
2023-01-22T17:06:20.620Z,-1.81
2023-01-22T17:08:47.811Z,-1.88
2023-01-22T17:11:16.429Z,-2.04
2023-01-22T17:13:43.614Z,-1.82
2023-01-22T17:16:11.598Z,-1.84
2023-01-22T17:18:38.351Z,-1.85
2023-01-22T17:21:06.821Z,-1.81
2023-01-22T17:23:33.621Z,-1.74
2023-01-22T17:26:00.420Z,-1.77
2023-01-22T17:28:27.025Z,-1.66
2023-01-22T17:30:53.707Z,-1.95
2023-01-22T17:33:20.953Z,-1.82
2023-01-22T17:35:47.645Z,-1.92
2023-01-22T17:38:14.463Z,-1.94
2023-01-22T17:40:42.185Z,-1.99
2023-01-22T17:43:08.819Z,-1.99
2023-01-22T17:45:39.470Z,-1.88
2023-01-22T17:48:06.437Z,-1.85
2023-01-22T17:50:33.032Z,-2.04
2023-01-22T17:52:59.700Z,-1.92
2023-01-22T17:55:29.029Z,-1.88
2023-01-22T17:57:56.415Z,-2.20
2023-01-22T18:00:23.080Z,-2.11
2023-01-22T18:02:50.247Z,-2.12
2023-01-22T18:05:37.321Z,-2.02
2023-01-22T18:08:04.096Z,-1.94
2023-01-22T18:10:30.787Z,-2.03
2023-01-22T18:12:57.476Z,-2.11
2023-01-22T18:15:24.094Z,-1.92
2023-01-22T18:17:50.716Z,-2.26
2023-01-22T18:20:17.475Z,-1.91
2023-01-22T18:22:44.263Z,-2.21
2023-01-22T18:25:10.929Z,-1.85
2023-01-22T18:27:37.699Z,-2.12
2023-01-22T18:30:06.328Z,-2.08
2023-01-22T18:32:35.745Z,-2.06
2023-01-22T18:35:03.088Z,-1.90
2023-01-22T18:37:33.794Z,-2.18
2023-01-22T18:40:00.851Z,-1.94
2023-01-22T18:42:27.967Z,-1.89
2023-01-22T18:44:56.162Z,-2.09
2023-01-22T18:47:22.921Z,-2.00
2023-01-22T18:49:50.585Z,-2.16
2023-01-22T18:52:17.327Z,-2.20
2023-01-22T18:54:43.998Z,-1.89
2023-01-22T18:57:10.628Z,-1.95
2023-01-22T18:59:37.287Z,-2.11
2023-01-22T19:02:03.968Z,-1.99
2023-01-22T19:04:30.659Z,-1.97
2023-01-22T19:06:57.395Z,-2.16
2023-01-22T19:09:26.839Z,-1.94
2023-01-22T19:11:54.568Z,-1.98
2023-01-22T19:14:22.032Z,-1.95
2023-01-22T19:16:53.381Z,-2.04
2023-01-22T19:19:21.810Z,-2.02
2023-01-22T19:21:52.719Z,-2.16
2023-01-22T19:24:22.385Z,-1.91
2023-01-22T19:26:51.361Z,-2.06
2023-01-22T19:29:18.284Z,-2.26
2023-01-22T19:31:48.569Z,-2.00
2023-01-22T19:34:23.154Z,-2.10
2023-01-22T19:36:52.631Z,-2.11
2023-01-22T19:39:20.297Z,-1.98
2023-01-22T19:41:47.487Z,-2.33
2023-01-22T19:44:14.345Z,-2.16
2023-01-22T19:46:41.380Z,-2.06
2023-01-22T19:49:10.018Z,-2.08
2023-01-22T19:51:36.795Z,-2.10
2023-01-22T19:54:05.509Z,-2.07
2023-01-22T19:56:35.237Z,-2.02
2023-01-22T19:59:06.191Z,-1.97
2023-01-22T20:01:34.207Z,-2.06
2023-01-22T20:04:01.143Z,-2.26
2023-01-22T20:06:28.086Z,-2.19
2023-01-22T20:08:56.417Z,-2.03
2023-01-22T20:11:24.333Z,-2.13
2023-01-22T20:13:51.028Z,-2.03
2023-01-22T20:16:24.745Z,-2.06
2023-01-22T20:18:53.055Z,-2.06
2023-01-22T20:21:21.057Z,-2.12
2023-01-22T20:23:49.033Z,-2.33
2023-01-22T20:26:17.837Z,-2.25
2023-01-22T20:28:45.499Z,-2.08
2023-01-22T20:31:16.292Z,-2.02
2023-01-22T20:33:43.433Z,-2.08
2023-01-22T20:36:16.043Z,-2.02
2023-01-22T20:38:45.820Z,-2.00
2023-01-22T20:41:13.919Z,-2.24
2023-01-22T20:43:43.274Z,-2.00
2023-01-22T20:46:14.737Z,-2.03
2023-01-22T20:48:42.188Z,-1.95
2023-01-22T20:51:15.643Z,-2.12
2023-01-22T20:53:43.500Z,-2.17
2023-01-22T20:56:14.033Z,-2.02
2023-01-22T20:58:41.199Z,-1.98
2023-01-22T21:01:14.671Z,-2.07
2023-01-22T21:03:42.994Z,-2.23
2023-01-22T21:06:13.845Z,-2.06
2023-01-22T21:08:41.819Z,-2.06
2023-01-22T21:11:11.807Z,-2.12
2023-01-22T21:13:41.997Z,-2.17
2023-01-22T21:16:11.436Z,-2.06
2023-01-22T21:18:44.443Z,-2.10
2023-01-22T21:21:14.513Z,-2.05
2023-01-22T21:23:41.461Z,-1.97
2023-01-22T21:26:11.230Z,-1.96
2023-01-22T21:28:39.756Z,-2.13
2023-01-22T21:31:08.650Z,-2.11
2023-01-22T21:33:35.349Z,-1.99
2023-01-22T21:36:02.394Z,-1.99
2023-01-22T21:38:29.284Z,-2.18
2023-01-22T21:41:06.086Z,-2.04
2023-01-22T21:43:51.337Z,-2.05
2023-01-22T21:46:26.920Z,-2.02
2023-01-22T21:48:58.538Z,-2.12
2023-01-22T21:51:26.232Z,-2.23
2023-01-22T21:53:55.068Z,-2.31
2023-01-22T21:56:22.387Z,-2.03
2023-01-22T21:58:49.253Z,-2.20
2023-01-22T22:01:21.720Z,-2.15
2023-01-22T22:03:48.785Z,-2.18
2023-01-22T22:06:15.729Z,-1.94
2023-01-22T22:08:43.613Z,-2.15
2023-01-22T22:11:12.571Z,-1.92
2023-01-22T22:13:39.938Z,-1.91
2023-01-22T22:16:08.173Z,-1.88
2023-01-22T22:18:35.698Z,-1.86
2023-01-22T22:21:05.594Z,-2.09
2023-01-22T22:23:33.509Z,-1.87
2023-01-22T22:26:00.659Z,-2.09
2023-01-22T22:28:28.025Z,-1.91
2023-01-22T22:31:05.370Z,-1.91
2023-01-22T22:33:32.348Z,-1.94
2023-01-22T22:36:01.702Z,-1.93
2023-01-22T22:38:28.745Z,-2.09
2023-01-22T22:41:00.406Z,-2.18
2023-01-22T22:43:27.009Z,-2.17
2023-01-22T22:45:53.684Z,-2.23
2023-01-22T22:48:21.129Z,-2.17
2023-01-22T22:50:47.912Z,-2.00
2023-01-22T22:53:14.569Z,-2.03
2023-01-22T22:55:42.147Z,-1.98
2023-01-22T22:58:09.534Z,-2.12
2023-01-22T23:00:38.106Z,-1.99
2023-01-22T23:03:04.950Z,-2.15
2023-01-22T23:05:37.851Z,-2.00
2023-01-22T23:08:05.021Z,-1.87
2023-01-22T23:10:32.020Z,-2.14
2023-01-22T23:13:01.349Z,-2.22
2023-01-22T23:15:30.398Z,-2.06
2023-01-22T23:17:58.510Z,-1.89
2023-01-22T23:20:25.985Z,-1.95
2023-01-22T23:22:58.198Z,-2.13
2023-01-22T23:25:25.681Z,-1.89
2023-01-22T23:27:52.527Z,-1.86
2023-01-22T23:30:20.124Z,-2.17
2023-01-22T23:32:46.932Z,-2.30
2023-01-22T23:35:13.798Z,-2.24
2023-01-22T23:37:40.532Z,-2.05
2023-01-22T23:40:07.731Z,-2.05
2023-01-22T23:42:34.593Z,-2.18
2023-01-22T23:45:01.295Z,-1.86
2023-01-22T23:47:31.260Z,-1.98
2023-01-22T23:49:57.893Z,-1.77
2023-01-22T23:52:24.548Z,-2.17
2023-01-22T23:54:51.245Z,-2.28
2023-01-22T23:57:17.933Z,-2.18
2023-01-22T23:59:44.686Z,-2.12
